Time;durP1;ratioP1;P1;durP2;ratioP2;P2;SDS_P1;SDS_P2;PMS_P1;PMS_P2;Temp;Humidity;BMP_temperature;BMP_pressure;BME280_temperature;BME280_humidity;BME280_pressure;Samples;Min_cycle;Max_cycle;Signal;HPM_P1;HPM_P2
2021/12/09 00:01:51;;;;;;;34.60;18.55;;;-0.60;99.90;;;;;;5053920;28;20049;-60
2021/12/09 00:04:27;;;;;;;35.65;17.40;;;-0.60;99.90;;;;;;5053589;28;20040;-60
2021/12/09 00:06:55;;;;;;;41.72;18.73;;;-0.60;99.90;;;;;;5053103;28;20120;-60
2021/12/09 00:09:22;;;;;;;39.60;18.65;;;-0.60;99.90;;;;;;5053558;28;20504;-59
2021/12/09 00:11:50;;;;;;;40.40;19.17;;;-0.60;99.90;;;;;;5053594;28;20048;-60
2021/12/09 00:14:23;;;;;;;43.78;18.27;;;-0.60;99.90;;;;;;5053575;28;20095;-60
2021/12/09 00:16:52;;;;;;;36.00;18.13;;;-0.60;99.90;;;;;;5053492;28;20048;-60
2021/12/09 00:19:19;;;;;;;35.40;18.75;;;-0.60;99.90;;;;;;5052926;28;20095;-60
2021/12/09 00:21:46;;;;;;;43.65;19.58;;;-0.50;99.90;;;;;;5052547;28;20045;-60
2021/12/09 00:24:13;;;;;;;39.83;19.05;;;-0.60;99.90;;;;;;5053623;28;20044;-60
2021/12/09 00:26:43;;;;;;;42.55;19.17;;;-0.60;99.90;;;;;;5053013;28;20076;-60
2021/12/09 00:29:12;;;;;;;39.97;18.90;;;-0.50;99.90;;;;;;5053103;28;20041;-59
2021/12/09 00:31:39;;;;;;;40.85;19.15;;;-0.60;99.90;;;;;;5053240;28;20068;-60
2021/12/09 00:34:06;;;;;;;41.60;18.92;;;-0.50;99.90;;;;;;5053180;28;20041;-60
2021/12/09 00:36:39;;;;;;;41.42;19.30;;;-0.60;99.90;;;;;;5052767;28;20047;-60
2021/12/09 00:39:08;;;;;;;37.33;19.35;;;-0.50;99.90;;;;;;5053306;28;20053;-60
2021/12/09 00:41:35;;;;;;;39.00;20.23;;;-0.50;99.90;;;;;;5052727;28;20516;-60
2021/12/09 00:44:02;;;;;;;37.58;20.10;;;-0.40;99.90;;;;;;5053030;28;20041;-60
2021/12/09 00:46:30;;;;;;;43.92;21.77;;;-0.40;99.90;;;;;;5052773;28;20045;-60
2021/12/09 00:48:58;;;;;;;37.42;20.75;;;-0.40;99.90;;;;;;5053046;28;20057;-60
2021/12/09 00:51:25;;;;;;;47.58;22.05;;;-0.40;99.90;;;;;;5052805;28;20068;-60
2021/12/09 00:53:52;;;;;;;45.03;20.85;;;-0.30;99.90;;;;;;5052377;28;20090;-60
2021/12/09 00:56:18;;;;;;;41.17;21.10;;;-0.30;99.90;;;;;;5052477;28;20044;-60
2021/12/09 00:58:45;;;;;;;43.78;21.85;;;-0.40;99.90;;;;;;5052782;28;20091;-60
2021/12/09 01:01:12;;;;;;;53.67;23.02;;;-0.40;99.90;;;;;;5052691;28;20047;-60
2021/12/09 01:03:41;;;;;;;39.75;19.70;;;-0.30;99.90;;;;;;5052679;28;20041;-60
2021/12/09 01:06:09;;;;;;;39.83;20.77;;;-0.30;99.90;;;;;;5052067;28;20045;-60
2021/12/09 01:08:42;;;;;;;39.70;20.70;;;-0.40;99.90;;;;;;5052665;28;20048;-60
2021/12/09 01:11:10;;;;;;;41.17;21.35;;;-0.40;99.90;;;;;;5052331;28;20107;-60
2021/12/09 01:13:38;;;;;;;39.63;20.67;;;-0.40;99.90;;;;;;5052486;28;20514;-60
2021/12/09 01:16:05;;;;;;;44.90;21.27;;;-0.40;99.90;;;;;;5051979;28;20534;-60
2021/12/09 01:18:34;;;;;;;40.58;20.15;;;-0.50;99.90;;;;;;5052433;28;20049;-60
2021/12/09 01:21:03;;;;;;;46.20;21.83;;;-0.40;99.90;;;;;;5052439;28;20071;-60
2021/12/09 01:23:30;;;;;;;42.95;20.15;;;-0.40;99.90;;;;;;5052181;28;20508;-60
2021/12/09 01:26:01;;;;;;;40.03;19.80;;;-0.50;99.90;;;;;;5051970;28;20099;-60
2021/12/09 01:28:32;;;;;;;47.58;21.20;;;-0.50;99.90;;;;;;5052045;28;20048;-60
2021/12/09 01:31:03;;;;;;;37.83;19.95;;;-0.50;99.90;;;;;;5052152;28;20127;-60
2021/12/09 01:33:31;;;;;;;44.63;20.15;;;-0.50;99.90;;;;;;5052201;28;20037;-60
2021/12/09 01:35:58;;;;;;;41.35;20.48;;;-0.50;99.90;;;;;;5051594;28;20045;-60
2021/12/09 01:38:29;;;;;;;47.53;21.27;;;-0.50;99.90;;;;;;5051988;28;20044;-60
2021/12/09 01:40:57;;;;;;;40.80;21.52;;;-0.40;99.90;;;;;;5051989;28;20048;-60
2021/12/09 01:43:24;;;;;;;44.45;22.10;;;-0.40;99.90;;;;;;5051940;28;20497;-60
2021/12/09 01:46:12;;;;;;;45.13;22.88;;;-0.40;99.90;;;;;;5051575;28;20045;-60
2021/12/09 01:48:41;;;;;;;45.97;21.55;;;-0.40;99.90;;;;;;5051790;28;20053;-60
2021/12/09 01:51:09;;;;;;;41.63;22.67;;;-0.40;99.90;;;;;;5051561;28;20033;-60
2021/12/09 01:53:36;;;;;;;;;;;-0.40;99.90;;;;;;5052210;28;20084;-60
2021/12/09 01:56:06;;;;;;;43.42;20.25;;;-0.30;99.90;;;;;;5051586;28;19921;-60
2021/12/09 01:58:34;;;;;;;45.40;23.15;;;-0.30;99.90;;;;;;5033894;28;20052;-60
2021/12/09 02:01:03;;;;;;;41.97;21.23;;;-0.30;99.90;;;;;;5051413;28;20505;-60
2021/12/09 02:03:31;;;;;;;44.20;20.88;;;-0.40;99.90;;;;;;5051280;28;20370;-60
2021/12/09 02:05:58;;;;;;;43.63;22.08;;;-0.40;99.90;;;;;;5050850;28;20408;-60
2021/12/09 02:08:25;;;;;;;38.95;21.50;;;-0.40;99.90;;;;;;5033868;28;20084;-60
2021/12/09 02:10:53;;;;;;;41.00;21.67;;;-0.40;99.90;;;;;;5051562;28;20060;-60
2021/12/09 02:13:20;;;;;;;;;;;-0.30;99.90;;;;;;5051941;28;20041;-60
2021/12/09 02:15:47;;;;;;;44.63;20.52;;;-0.30;99.90;;;;;;5051569;28;20352;-60
2021/12/09 02:18:15;;;;;;;39.88;21.58;;;-0.30;99.90;;;;;;5051323;28;20041;-60
2021/12/09 02:20:44;;;;;;;38.00;20.98;;;-0.40;99.90;;;;;;5051440;28;20485;-60
2021/12/09 02:23:15;;;;;;;39.70;22.02;;;-0.30;99.90;;;;;;5051567;28;20045;-60
2021/12/09 02:25:44;;;;;;;45.92;22.50;;;-0.30;99.90;;;;;;5050973;28;20543;-60
2021/12/09 02:28:15;;;;;;;41.00;21.73;;;-0.30;99.90;;;;;;5051266;28;20052;-60
2021/12/09 02:30:43;;;;;;;44.58;21.85;;;-0.30;99.90;;;;;;5051537;28;20599;-60
2021/12/09 02:33:10;;;;;;;43.97;22.10;;;-0.30;99.90;;;;;;5051264;28;20072;-59
2021/12/09 02:35:38;;;;;;;40.58;21.67;;;-0.30;99.90;;;;;;5050828;28;20049;-60
2021/12/09 02:38:07;;;;;;;43.38;21.58;;;-0.30;99.90;;;;;;5051259;28;20037;-60
2021/12/09 02:40:35;;;;;;;40.15;21.38;;;-0.30;99.90;;;;;;5050926;28;20048;-60
2021/12/09 02:43:05;;;;;;;45.72;22.35;;;-0.30;99.90;;;;;;5051308;28;20048;-60
2021/12/09 02:45:31;;;;;;;42.28;21.90;;;-0.30;99.90;;;;;;5050810;28;20509;-60
2021/12/09 02:47:59;;;;;;;40.08;20.88;;;-0.30;99.90;;;;;;5051379;28;20048;-60
2021/12/09 02:50:26;;;;;;;45.13;21.52;;;-0.40;99.90;;;;;;5050989;28;20040;-60
2021/12/09 02:52:53;;;;;;;43.67;21.92;;;-0.40;99.90;;;;;;5051220;28;20044;-60
2021/12/09 02:55:20;;;;;;;46.47;22.60;;;-0.40;99.90;;;;;;5050699;28;20037;-59
2021/12/09 02:57:50;;;;;;;45.25;22.30;;;-0.40;99.90;;;;;;5051202;28;20110;-60
2021/12/09 03:00:17;;;;;;;45.15;22.38;;;-0.30;99.90;;;;;;5051144;28;20043;-59
2021/12/09 03:02:44;;;;;;;47.97;22.58;;;-0.30;99.90;;;;;;5051283;28;20048;-59
2021/12/09 03:05:11;;;;;;;;;;;-0.40;99.90;;;;;;5051208;28;20072;-60
2021/12/09 03:07:41;;;;;;;45.15;20.80;;;-0.40;99.90;;;;;;5050923;28;20384;-59
2021/12/09 03:10:20;;;;;;;41.97;22.77;;;-0.30;99.90;;;;;;5051121;28;20045;-59
2021/12/09 03:12:50;;;;;;;42.30;22.30;;;-0.30;99.90;;;;;;5050893;28;20049;-59
2021/12/09 03:15:17;;;;;;;47.63;23.05;;;-0.40;99.90;;;;;;5051034;28;20079;-59
2021/12/09 03:17:46;;;;;;;46.25;22.65;;;-0.40;99.90;;;;;;5054814;28;20116;-60
2021/12/09 03:20:15;;;;;;;46.75;22.17;;;-0.40;99.90;;;;;;5054284;28;20045;-60
2021/12/09 03:22:44;;;;;;;46.80;23.10;;;-0.40;99.90;;;;;;5054730;28;20041;-59
2021/12/09 03:25:12;;;;;;;46.78;22.67;;;-0.30;99.90;;;;;;5054384;28;20098;-60
2021/12/09 03:27:40;;;;;;;42.35;23.05;;;-0.30;99.90;;;;;;5054600;28;20055;-59
2021/12/09 03:30:09;;;;;;;;;;;-0.30;99.90;;;;;;5054813;28;20045;-59
2021/12/09 03:32:36;;;;;;;44.80;22.90;;;-0.30;99.90;;;;;;5054395;28;19924;-59
2021/12/09 03:35:04;;;;;;;47.25;23.70;;;-0.30;99.90;;;;;;5054204;28;20481;-59
2021/12/09 03:37:31;;;;;;;47.33;22.95;;;-0.30;99.90;;;;;;5054190;28;20090;-60
2021/12/09 03:39:58;;;;;;;48.67;23.30;;;-0.20;99.90;;;;;;5054199;28;20064;-59
2021/12/09 03:42:28;;;;;;;42.97;23.10;;;-0.20;99.90;;;;;;5054409;28;20052;-60
2021/12/09 03:44:57;;;;;;;47.97;23.70;;;-0.20;99.90;;;;;;5054248;28;20059;-59
2021/12/09 03:47:26;;;;;;;49.30;23.02;;;-0.20;99.90;;;;;;5053653;28;20049;-60
2021/12/09 03:49:55;;;;;;;48.30;22.73;;;-0.20;99.90;;;;;;5053978;28;20055;-59
2021/12/09 03:52:24;;;;;;;42.40;22.25;;;-0.20;99.90;;;;;;5054081;28;20071;-59
2021/12/09 03:54:51;;;;;;;40.40;21.38;;;-0.30;99.90;;;;;;5054188;28;20663;-60
2021/12/09 03:57:18;;;;;;;41.45;20.92;;;-0.30;99.90;;;;;;5053603;28;20102;-60
2021/12/09 03:59:46;;;;;;;41.65;22.33;;;-0.30;99.90;;;;;;5053926;28;20040;-59
2021/12/09 04:02:14;;;;;;;47.65;21.70;;;-0.20;99.90;;;;;;5053804;28;20041;-59
2021/12/09 04:04:42;;;;;;;41.50;22.48;;;-0.20;99.90;;;;;;5053752;28;20045;-59
2021/12/09 04:07:09;;;;;;;40.50;22.38;;;-0.20;99.90;;;;;;5053579;28;20119;-59
2021/12/09 04:09:36;;;;;;;41.97;23.27;;;-0.20;99.90;;;;;;5053621;28;20057;-59
2021/12/09 04:12:03;;;;;;;43.20;22.80;;;-0.10;99.90;;;;;;5053583;28;20639;-59
2021/12/09 04:14:31;;;;;;;;;;;-0.10;99.90;;;;;;5053918;28;20089;-59
2021/12/09 04:16:58;;;;;;;42.97;21.88;;;-0.10;99.90;;;;;;5035464;28;20339;-59
2021/12/09 04:19:25;;;;;;;45.63;23.13;;;0.00;99.90;;;;;;5053573;28;20088;-59
2021/12/09 04:21:52;;;;;;;48.90;24.08;;;-0.10;99.90;;;;;;5052480;28;20055;-59
2021/12/09 04:24:20;;;;;;;46.17;23.40;;;0.00;99.90;;;;;;5053343;28;20102;-59
2021/12/09 04:26:50;;;;;;;44.08;22.85;;;0.00;99.90;;;;;;5052389;28;20464;-59
2021/12/09 04:29:17;;;;;;;45.28;23.25;;;-0.10;99.90;;;;;;5053158;28;20056;-59
2021/12/09 04:31:47;;;;;;;47.20;23.38;;;-0.10;99.90;;;;;;5053366;28;20484;-59
2021/12/09 04:34:15;;;;;;;45.88;23.30;;;-0.20;99.90;;;;;;5053245;28;20047;-59
2021/12/09 04:36:42;;;;;;;50.25;22.88;;;-0.30;99.90;;;;;;5052830;28;20041;-59
2021/12/09 04:39:09;;;;;;;53.50;24.38;;;-0.30;99.90;;;;;;5053462;28;20050;-59
2021/12/09 04:41:36;;;;;;;;;;;-0.30;99.90;;;;;;5053674;28;20091;-60
2021/12/09 04:44:05;;;;;;;45.72;23.63;;;-0.30;99.90;;;;;;5053089;28;19921;-59
2021/12/09 04:46:31;;;;;;;48.17;23.05;;;-0.30;99.90;;;;;;5052684;28;20095;-59
2021/12/09 04:48:59;;;;;;;46.20;24.92;;;-0.20;99.90;;;;;;5052982;28;20045;-60
2021/12/09 04:51:26;;;;;;;45.33;23.15;;;-0.20;99.90;;;;;;5052843;28;20120;-59
2021/12/09 04:53:52;;;;;;;50.22;22.92;;;-0.20;99.90;;;;;;5052875;28;20504;-59
2021/12/09 04:56:20;;;;;;;44.85;23.10;;;-0.20;99.90;;;;;;5052354;28;20041;-59
2021/12/09 04:58:47;;;;;;;49.72;23.48;;;-0.20;99.90;;;;;;5052823;28;20083;-61
2021/12/09 05:01:14;;;;;;;46.95;24.08;;;-0.30;99.90;;;;;;5052736;28;20056;-59
2021/12/09 05:03:45;;;;;;;46.33;23.63;;;-0.20;99.90;;;;;;5052678;28;20508;-59
2021/12/09 05:06:12;;;;;;;53.17;24.30;;;-0.10;99.90;;;;;;5052329;28;20528;-59
2021/12/09 05:08:44;;;;;;;43.05;23.85;;;-0.10;99.90;;;;;;5052397;28;20455;-59
2021/12/09 05:11:55;;;;;;;42.10;23.60;;;-0.10;99.90;;;;;;5052509;28;20571;-60
2021/12/09 05:14:04;;;;;;;45.45;23.85;;;-0.10;99.90;;;;;;5044534;28;20057;-59
2021/12/09 05:16:31;;;;;;;46.15;23.20;;;-0.10;99.90;;;;;;5051963;28;20047;-59
2021/12/09 05:18:59;;;;;;;53.33;24.35;;;-0.10;99.90;;;;;;5052377;28;20037;-59
2021/12/09 05:21:29;;;;;;;58.40;25.52;;;-0.10;99.90;;;;;;5052222;28;20099;-59
2021/12/09 05:23:57;;;;;;;43.60;23.73;;;-0.20;99.90;;;;;;5052550;28;20045;-59
2021/12/09 05:26:28;;;;;;;53.00;25.27;;;-0.20;99.90;;;;;;5051718;28;20075;-59
2021/12/09 05:28:57;;;;;;;45.17;23.23;;;-0.20;99.90;;;;;;5052195;28;20040;-59
2021/12/09 05:34:11;;;;;;;44.75;23.48;;;-0.10;99.90;;;;;;5052064;28;20037;-60
2021/12/09 05:36:38;;;;;;;45.70;24.00;;;-0.10;99.90;;;;;;5051680;28;20061;-59
2021/12/09 05:39:08;;;;;;;52.65;24.50;;;-0.10;99.90;;;;;;5051941;28;20477;-59
2021/12/09 05:41:36;;;;;;;45.45;24.15;;;0.00;99.90;;;;;;5097309;22;20040;-60
2021/12/09 05:44:05;;;;;;;49.30;24.48;;;-0.10;99.90;;;;;;5085749;28;20048;-60
2021/12/09 05:46:35;;;;;;;51.67;25.45;;;-0.10;99.90;;;;;;5075695;28;20049;-60
2021/12/09 05:49:03;;;;;;;52.75;26.80;;;-0.10;99.90;;;;;;5071773;28;20044;-60
2021/12/09 05:51:30;;;;;;;48.10;25.55;;;-0.10;99.90;;;;;;5079226;28;20502;-60
2021/12/09 05:53:57;;;;;;;;;;;-0.20;99.90;;;;;;5090864;28;20047;-60
2021/12/09 05:56:24;;;;;;;55.58;25.50;;;-0.10;99.90;;;;;;5090936;28;19920;-60
2021/12/09 05:58:51;;;;;;;;;;;-0.10;99.90;;;;;;5074157;28;20081;-60
2021/12/09 06:01:18;;;;;;;51.50;24.92;;;0.00;99.90;;;;;;5091425;28;19926;-60
2021/12/09 06:03:45;;;;;;;53.97;25.90;;;0.00;99.90;;;;;;5091512;28;20035;-59
2021/12/09 06:06:12;;;;;;;45.28;23.10;;;0.00;99.90;;;;;;5090775;28;20044;-60
2021/12/09 06:08:40;;;;;;;51.33;25.52;;;0.10;99.90;;;;;;5073474;28;20051;-60
2021/12/09 06:11:10;;;;;;;43.60;24.48;;;0.10;99.90;;;;;;5091140;28;20040;-59
2021/12/09 06:13:38;;;;;;;46.00;24.30;;;0.10;99.90;;;;;;5091548;28;20044;-60
2021/12/09 06:16:07;;;;;;;43.72;23.63;;;0.10;99.90;;;;;;5091393;28;20044;-61
2021/12/09 06:18:35;;;;;;;47.00;24.75;;;0.10;99.90;;;;;;5091712;28;20123;-60
2021/12/09 06:21:03;;;;;;;47.60;23.63;;;0.10;99.90;;;;;;5091673;28;20056;-60
2021/12/09 06:23:31;;;;;;;44.33;23.67;;;0.20;99.90;;;;;;5091526;28;20530;-60
2021/12/09 06:25:58;;;;;;;49.97;24.95;;;0.20;99.90;;;;;;5091344;28;20549;-60
2021/12/09 06:28:25;;;;;;;;;;;0.10;99.90;;;;;;5091854;28;20123;-60
2021/12/09 06:30:52;;;;;;;47.60;25.67;;;0.10;99.90;;;;;;5091771;28;20402;-60
2021/12/09 06:33:19;;;;;;;51.70;25.90;;;0.20;99.90;;;;;;5091540;28;20044;-60
2021/12/09 06:35:46;;;;;;;49.58;25.98;;;0.10;99.90;;;;;;5091193;28;20554;-60
2021/12/09 06:38:15;;;;;;;48.17;26.65;;;0.20;99.90;;;;;;5091393;28;20067;-60
2021/12/09 06:40:44;;;;;;;52.70;27.25;;;0.20;99.90;;;;;;5091305;28;20036;-60
2021/12/09 06:43:12;;;;;;;50.97;27.75;;;0.20;99.90;;;;;;5091443;28;20040;-60
2021/12/09 06:45:40;;;;;;;54.47;27.92;;;0.20;99.90;;;;;;5091027;28;20109;-60
2021/12/09 06:48:07;;;;;;;45.42;25.67;;;0.20;99.90;;;;;;5091476;28;20082;-60
2021/12/09 06:50:34;;;;;;;35.33;21.15;;;0.20;99.90;;;;;;5092066;28;20036;-60
2021/12/09 06:53:01;;;;;;;55.45;28.73;;;0.20;99.90;;;;;;5095317;28;20066;-60
2021/12/09 06:55:28;;;;;;;48.22;26.27;;;0.20;99.90;;;;;;5095172;28;20059;-60
2021/12/09 06:57:55;;;;;;;55.30;26.83;;;0.20;99.90;;;;;;5095357;28;20119;-60
2021/12/09 07:00:26;;;;;;;47.67;24.13;;;0.20;99.90;;;;;;5094854;28;20039;-60
2021/12/09 07:02:53;;;;;;;50.47;26.35;;;0.20;99.90;;;;;;5078735;28;20035;-60
2021/12/09 07:05:23;;;;;;;52.97;26.15;;;0.20;99.90;;;;;;5094757;28;20101;-60
2021/12/09 07:07:51;;;;;;;45.33;24.23;;;0.10;99.90;;;;;;5072460;28;20416;-60
2021/12/09 07:10:20;;;;;;;47.67;25.05;;;0.20;99.90;;;;;;5076779;28;20045;-60
2021/12/09 07:12:47;;;;;;;46.35;25.13;;;0.20;99.90;;;;;;5095217;28;20040;-60
2021/12/09 07:15:15;;;;;;;43.53;24.08;;;0.20;99.90;;;;;;5092841;28;20051;-60
2021/12/09 07:17:42;;;;;;;49.10;23.60;;;0.20;99.90;;;;;;5093715;28;20044;-60
2021/12/09 07:20:14;;;;;;;45.60;23.90;;;0.20;99.90;;;;;;5094370;28;20061;-60
2021/12/09 07:22:41;;;;;;;55.97;25.33;;;0.20;99.90;;;;;;5094859;28;20047;-60
2021/12/09 07:25:08;;;;;;;47.00;24.35;;;0.20;99.90;;;;;;5094625;28;20415;-60
2021/12/09 07:27:35;;;;;;;;;;;0.20;99.90;;;;;;5077700;28;20109;-60
2021/12/09 07:30:05;;;;;;;51.47;25.48;;;0.30;99.90;;;;;;5074558;28;20368;-60
2021/12/09 07:32:32;;;;;;;46.15;25.25;;;0.30;99.90;;;;;;5074320;28;20047;-60
2021/12/09 07:35:00;;;;;;;51.70;28.40;;;0.30;99.90;;;;;;5074308;28;20481;-60
2021/12/09 07:37:28;;;;;;;50.63;25.67;;;0.30;99.90;;;;;;5074091;28;20070;-60
2021/12/09 07:39:54;;;;;;;;;;;0.30;99.90;;;;;;5074557;28;20041;-60
2021/12/09 07:42:22;;;;;;;54.63;23.67;;;0.30;99.90;;;;;;5091470;28;19920;-60
2021/12/09 07:44:48;;;;;;;;;;;0.40;99.90;;;;;;5094753;28;20043;-60
2021/12/09 07:47:17;;;;;;;47.75;23.83;;;0.40;99.90;;;;;;5093888;28;19949;-60
2021/12/09 07:49:45;;;;;;;52.45;26.33;;;0.40;99.90;;;;;;5094328;28;20047;-60
2021/12/09 07:52:12;;;;;;;;;;;0.40;99.90;;;;;;5094987;28;20040;-60
2021/12/09 07:54:38;;;;;;;58.63;30.40;;;0.40;99.90;;;;;;5094260;28;19926;-60
2021/12/09 07:57:06;;;;;;;63.88;30.23;;;0.40;99.90;;;;;;5093940;28;20442;-60
2021/12/09 07:59:33;;;;;;;62.80;30.92;;;0.50;99.90;;;;;;5094232;28;20389;-60
2021/12/09 08:02:00;;;;;;;56.58;29.65;;;0.60;99.90;;;;;;5092827;28;20438;-60
2021/12/09 08:04:27;;;;;;;63.97;30.13;;;0.60;99.90;;;;;;5094031;28;20512;-60
2021/12/09 08:06:54;;;;;;;59.13;28.77;;;0.60;99.90;;;;;;5093646;28;20048;-60
2021/12/09 08:09:20;;;;;;;55.70;27.23;;;0.70;99.90;;;;;;5094040;28;20047;-60
2021/12/09 08:11:47;;;;;;;48.78;26.00;;;0.70;99.90;;;;;;5093832;28;20205;-60
2021/12/09 08:14:16;;;;;;;50.05;25.85;;;0.70;99.90;;;;;;5093828;28;20048;-60
2021/12/09 08:16:43;;;;;;;49.30;25.92;;;0.70;99.90;;;;;;5093516;28;20048;-60
2021/12/09 08:19:12;;;;;;;49.50;26.73;;;0.60;99.90;;;;;;5093986;28;20086;-60
2021/12/09 08:21:41;;;;;;;54.13;26.63;;;0.60;99.90;;;;;;5093804;28;20044;-60
2021/12/09 08:24:10;;;;;;;53.08;27.83;;;0.60;99.90;;;;;;5093650;28;20082;-60
2021/12/09 08:26:38;;;;;;;50.63;27.00;;;0.60;99.90;;;;;;5093292;28;20090;-60
2021/12/09 08:29:05;;;;;;;58.00;28.88;;;0.70;99.90;;;;;;5093607;28;20044;-60
2021/12/09 08:31:34;;;;;;;53.75;27.08;;;0.70;99.90;;;;;;5093498;28;20493;-60
2021/12/09 08:34:11;;;;;;;53.35;27.23;;;0.70;99.90;;;;;;5093816;28;20044;-60
2021/12/09 08:36:45;;;;;;;54.20;28.55;;;0.80;99.90;;;;;;5093008;28;20036;-60
2021/12/09 08:39:12;;;;;;;52.53;25.60;;;0.80;99.90;;;;;;5093391;28;20052;-60
2021/12/09 08:41:39;;;;;;;51.47;25.70;;;0.80;99.90;;;;;;5093315;28;20043;-60
2021/12/09 08:44:07;;;;;;;51.20;25.95;;;0.80;99.90;;;;;;5093204;28;20135;-60
2021/12/09 08:46:34;;;;;;;;;;;0.90;99.90;;;;;;5075263;28;20048;-60
2021/12/09 08:49:01;;;;;;;49.38;24.83;;;0.90;99.90;;;;;;5086763;28;19927;-60
2021/12/09 08:51:28;;;;;;;45.15;24.25;;;0.90;99.90;;;;;;5092232;28;20055;-60
2021/12/09 08:53:58;;;;;;;54.60;24.25;;;0.90;99.90;;;;;;5092620;28;20086;-60
2021/12/09 08:56:25;;;;;;;41.78;22.83;;;1.00;99.90;;;;;;5092678;28;20041;-60
2021/12/09 08:58:52;;;;;;;48.08;24.05;;;1.00;99.90;;;;;;5093219;28;20062;-61
2021/12/09 09:01:19;;;;;;;47.92;24.98;;;1.00;99.90;;;;;;5092863;28;20500;-60
2021/12/09 09:03:47;;;;;;;49.97;25.42;;;1.00;99.90;;;;;;5092952;28;20043;-60
2021/12/09 09:06:14;;;;;;;51.33;26.75;;;1.00;99.90;;;;;;5092598;28;20048;-60
2021/12/09 09:08:41;;;;;;;;;;;1.10;99.90;;;;;;5093372;28;20102;-61
2021/12/09 09:11:08;;;;;;;55.05;24.48;;;1.10;99.90;;;;;;5092321;28;19945;-60
2021/12/09 09:13:35;;;;;;;50.85;25.02;;;1.10;99.90;;;;;;5092527;28;20401;-60
2021/12/09 09:16:03;;;;;;;48.80;23.67;;;1.20;99.90;;;;;;5092285;28;20050;-59
2021/12/09 09:18:30;;;;;;;44.38;24.00;;;1.20;99.90;;;;;;5074357;28;20470;-60
2021/12/09 09:20:57;;;;;;;46.50;26.13;;;1.10;99.90;;;;;;5092020;28;20358;-59
2021/12/09 09:23:24;;;;;;;50.88;26.70;;;1.10;99.90;;;;;;5092559;28;20051;-59
2021/12/09 09:25:51;;;;;;;47.90;25.77;;;1.20;99.90;;;;;;5092083;28;20040;-59
2021/12/09 09:28:24;;;;;;;52.90;26.33;;;1.20;99.90;;;;;;5092671;28;20072;-59
2021/12/09 09:30:56;;;;;;;58.15;26.25;;;1.10;99.90;;;;;;5092493;28;20097;-59
2021/12/09 09:33:27;;;;;;;50.78;26.23;;;1.10;99.90;;;;;;5092444;28;20071;-59
2021/12/09 09:35:55;;;;;;;48.42;26.77;;;1.20;99.90;;;;;;5091996;28;20044;-59
2021/12/09 09:38:23;;;;;;;50.67;26.00;;;1.20;99.90;;;;;;5092661;28;20044;-59
2021/12/09 09:41:08;;;;;;;51.80;26.70;;;1.30;99.90;;;;;;5092183;28;20058;-59
2021/12/09 09:46:17;;;;;;;44.47;25.92;;;1.40;99.90;;;;;;5091757;28;20054;-59
2021/12/09 09:48:46;;;;;;;52.40;26.40;;;1.40;99.90;;;;;;5092251;28;20044;-59
2021/12/09 09:51:13;;;;;;;60.10;30.20;;;1.50;99.90;;;;;;5091780;28;20511;-59
2021/12/09 09:53:41;;;;;;;54.47;28.67;;;1.50;99.90;;;;;;5092135;28;20085;-60
2021/12/09 09:56:17;;;;;;;55.75;29.42;;;1.60;99.90;;;;;;5091514;28;20381;-59
2021/12/09 09:58:49;;;;;;;59.00;31.92;;;1.70;99.90;;;;;;5092049;28;20101;-60
2021/12/09 10:01:17;;;;;;;63.53;30.50;;;1.70;99.90;;;;;;5092025;28;20083;-59
2021/12/09 10:03:47;;;;;;;64.50;30.92;;;1.70;99.90;;;;;;5091860;28;20064;-59
2021/12/09 10:06:16;;;;;;;58.97;30.23;;;1.80;99.90;;;;;;5091458;28;20044;-60
2021/12/09 10:08:43;;;;;;;53.33;28.48;;;1.90;99.90;;;;;;5091745;28;20097;-59
2021/12/09 10:11:10;;;;;;;57.63;28.02;;;2.00;99.90;;;;;;5091931;28;20044;-60
2021/12/09 10:13:40;;;;;;;69.22;32.33;;;2.00;99.90;;;;;;5091855;28;20085;-60
2021/12/09 10:16:19;;;;;;;48.72;25.40;;;2.00;99.90;;;;;;5091184;28;20123;-60
2021/12/09 10:18:48;;;;;;;43.67;25.85;;;2.00;99.90;;;;;;5091861;28;20153;-59
2021/12/09 10:21:28;;;;;;;47.17;25.15;;;2.00;99.90;;;;;;5091527;28;20040;-59
2021/12/09 10:24:06;;;;;;;49.10;26.17;;;2.00;99.90;;;;;;5091946;28;20458;-59
2021/12/09 10:26:42;;;;;;;47.35;25.15;;;2.00;99.90;;;;;;5090569;28;20047;-59
2021/12/09 10:29:26;;;;;;;50.83;27.35;;;2.00;99.90;;;;;;5091549;28;20055;-60
2021/12/09 10:31:58;;;;;;;53.05;28.13;;;2.00;99.90;;;;;;5091733;28;20118;-60
2021/12/09 10:34:37;;;;;;;59.92;27.73;;;2.00;99.90;;;;;;5091598;28;20491;-59
2021/12/09 10:37:06;;;;;;;51.17;25.60;;;1.90;99.90;;;;;;5091164;28;20507;-60
2021/12/09 10:39:41;;;;;;;50.25;26.35;;;1.90;99.90;;;;;;5091591;28;20105;-59
2021/12/09 10:42:16;;;;;;;49.05;26.30;;;1.90;99.90;;;;;;5091405;28;20131;-60
2021/12/09 10:44:48;;;;;;;44.88;25.15;;;1.90;99.90;;;;;;5090968;28;20074;-60
2021/12/09 10:53:06;;;;;;;45.17;25.08;;;2.00;99.90;;;;;;5088321;28;20040;-59
2021/12/09 10:55:36;;;;;;;46.30;25.48;;;2.10;99.90;;;;;;5090283;28;20500;-60
2021/12/09 10:58:13;;;;;;;55.58;26.17;;;2.20;99.90;;;;;;5090940;28;20039;-60
2021/12/09 11:00:44;;;;;;;;;;;2.20;99.90;;;;;;5089835;28;20453;-60
2021/12/09 11:03:18;;;;;;;45.15;24.02;;;2.20;99.90;;;;;;5088336;28;19920;-59
2021/12/09 11:05:58;;;;;;;45.88;24.52;;;2.10;99.90;;;;;;5090391;28;20051;-60
2021/12/09 11:08:43;;;;;;;49.22;24.23;;;2.10;99.90;;;;;;5090558;28;20514;-60
2021/12/09 11:11:16;;;;;;;44.75;25.75;;;2.10;99.90;;;;;;5088916;28;20454;-60
2021/12/09 11:14:14;;;;;;;45.33;25.70;;;2.20;99.90;;;;;;5087983;28;20070;-60
2021/12/09 11:17:02;;;;;;;53.83;25.48;;;2.20;99.90;;;;;;5087508;28;20105;-59
2021/12/09 11:22:03;;;;;;;41.55;24.80;;;2.40;99.90;;;;;;5090548;28;20032;-59
2021/12/09 11:24:36;;;;;;;49.45;26.80;;;2.40;99.90;;;;;;5090548;28;20048;-60
2021/12/09 11:27:07;;;;;;;52.72;25.83;;;2.50;99.90;;;;;;5087571;28;20043;-60
2021/12/09 11:29:48;;;;;;;48.72;25.25;;;2.40;99.90;;;;;;5090681;28;20115;-59
2021/12/09 11:35:16;;;;;;;38.70;22.67;;;2.40;99.90;;;;;;5089549;28;20085;-60
2021/12/09 11:40:36;;;;;;;37.75;22.65;;;2.60;99.90;;;;;;5094152;28;20055;-59
2021/12/09 11:43:05;;;;;;;40.25;23.52;;;2.50;99.90;;;;;;5105185;22;20047;-61
2021/12/09 11:45:41;;;;;;;39.83;22.73;;;2.60;99.90;;;;;;5093146;28;20090;-61
2021/12/09 11:48:09;;;;;;;40.30;23.58;;;2.60;99.90;;;;;;5093296;28;20069;-60
2021/12/09 11:51:15;;;;;;;46.53;24.08;;;2.80;99.90;;;;;;5073949;28;20190;-61
2021/12/09 11:53:44;;;;;;;49.55;25.77;;;2.70;99.90;;;;;;5073007;28;20086;-61
2021/12/09 11:56:31;;;;;;;52.78;26.42;;;2.70;99.90;;;;;;5073784;28;20044;-61
2021/12/09 12:07:57;;;;;;;42.10;23.95;;;2.70;99.90;;;;;;5073334;28;20492;-61
2021/12/09 12:13:36;;;;;;;40.88;20.30;;;2.50;99.90;;;;;;5073398;28;20047;-61
2021/12/09 12:16:46;;;;;;;53.97;20.42;;;2.60;99.90;;;;;;5073228;28;20086;-61
2021/12/09 12:19:26;;;;;;;55.20;22.50;;;2.60;99.90;;;;;;5073656;28;20040;-61
2021/12/09 12:22:20;;;;;;;36.55;21.15;;;2.70;99.90;;;;;;5073438;28;20040;-61
2021/12/09 12:27:51;;;;;;;37.10;17.48;;;2.60;99.90;;;;;;5073019;28;20043;-61
2021/12/09 12:30:39;;;;;;;30.88;13.80;;;2.50;99.90;;;;;;5073159;28;20447;-61
2021/12/09 12:41:16;;;;;;;19.30;7.25;;;2.50;99.90;;;;;;5073048;28;20044;-61
2021/12/09 12:43:56;;;;;;;19.17;6.45;;;2.40;99.90;;;;;;5073000;28;20502;-61
2021/12/09 12:49:29;;;;;;;18.40;5.23;;;2.30;99.90;;;;;;5072654;28;20048;-61
2021/12/09 12:52:12;;;;;;;10.88;4.95;;;2.20;99.90;;;;;;5072910;28;20040;-61
2021/12/09 12:57:42;;;;;;;15.63;4.65;;;2.10;99.90;;;;;;5072688;28;20041;-60
2021/12/09 13:00:11;;;;;;;13.68;4.40;;;1.90;99.90;;;;;;5072543;28;20553;-61
2021/12/09 13:16:11;;;;;;;14.15;4.45;;;1.90;99.90;;;;;;5072033;28;20483;-61
2021/12/09 13:18:41;;;;;;;10.00;3.70;;;2.00;99.90;;;;;;5072481;28;20044;-61
2021/12/09 13:21:31;;;;;;;13.82;6.90;;;2.00;99.90;;;;;;5072377;28;20076;-61
2021/12/09 13:24:16;;;;;;;;;;;2.00;99.90;;;;;;5072297;28;20102;-61
2021/12/09 13:27:03;;;;;;;10.25;4.53;;;2.00;99.90;;;;;;5071882;28;19920;-61
2021/12/09 13:30:00;;;;;;;12.95;4.53;;;2.10;99.90;;;;;;5072250;28;20040;-61
2021/12/09 13:33:14;;;;;;;11.40;3.85;;;2.10;99.90;;;;;;5072028;28;20041;-61
2021/12/09 13:39:12;;;;;;;21.25;4.07;;;2.20;99.90;;;;;;5072063;28;20041;-61
2021/12/09 13:47:39;;;;;;;6.05;2.92;;;2.30;99.90;;;;;;5071273;28;20044;-61
2021/12/09 13:55:35;;;;;;;9.38;3.53;;;2.30;99.90;;;;;;5071044;28;20089;-61
2021/12/09 13:58:07;;;;;;;12.63;3.65;;;2.20;99.90;;;;;;5072032;28;20068;-61
2021/12/09 14:00:42;;;;;;;8.90;3.97;;;2.20;99.90;;;;;;5071627;28;20040;-61
2021/12/09 14:03:11;;;;;;;11.50;3.53;;;2.20;99.90;;;;;;5071943;28;20053;-61
2021/12/09 14:06:00;;;;;;;7.53;2.92;;;2.20;99.90;;;;;;5071445;28;20040;-61
2021/12/09 14:08:38;;;;;;;4.70;3.00;;;2.20;99.90;;;;;;5071491;28;20057;-61
2021/12/09 14:11:19;;;;;;;9.85;3.42;;;2.20;99.90;;;;;;5053735;28;20481;-61